createdAt,value
2022-08-25T00:04:53.749Z,24.38
2022-08-25T00:09:16.928Z,24.25
2022-08-25T00:14:26.036Z,24.06
2022-08-25T00:19:35.154Z,24
2022-08-25T00:24:44.915Z,23.88
2022-08-25T00:29:54.761Z,23.81
2022-08-25T00:35:03.157Z,23.69
2022-08-25T00:40:12.994Z,23.69
2022-08-25T00:45:22.676Z,23.69
2022-08-25T00:50:33.076Z,23.56
2022-08-25T00:55:43.475Z,23.5
2022-08-25T01:02:05.844Z,23.5
2022-08-25T01:07:17.474Z,23.75
2022-08-25T01:12:31.548Z,23.81
2022-08-25T01:17:37.412Z,23.81
2022-08-25T01:22:55.475Z,23.75
2022-08-25T01:27:56.291Z,23.38
2022-08-25T01:33:05.405Z,23.19
2022-08-25T01:38:15.159Z,23.12
2022-08-25T01:43:24.918Z,22.94
2022-08-25T01:48:32.759Z,22.88
2022-08-25T01:53:41.876Z,22.62
2022-08-25T01:58:51.636Z,22.5
2022-08-25T02:04:02.052Z,22.25
2022-08-25T02:09:11.796Z,22.06
2022-08-25T02:14:20.261Z,22.12
2022-08-25T02:19:28.768Z,22.25
2022-08-25T02:24:38.516Z,22.19
2022-08-25T02:29:48.294Z,22.06
2022-08-25T02:34:56.128Z,22.25
2022-08-25T02:40:04.716Z,22.31
2022-08-25T02:45:13.075Z,22.25
2022-08-25T02:50:21.556Z,22.25
2022-08-25T02:55:31.319Z,22.25
2022-08-25T03:00:41.790Z,22.25
2022-08-25T03:05:50.837Z,22.06
2022-08-25T03:10:59.313Z,21.75
2022-08-25T03:16:12.388Z,21.62
2022-08-25T03:21:17.638Z,21.88
2022-08-25T03:26:27.317Z,21.69
2022-08-25T03:31:37.168Z,21.5
2022-08-25T03:36:46.836Z,21.44
2022-08-25T03:41:57.239Z,21.12
2022-08-25T03:47:07.013Z,21.38
2022-08-25T03:52:15.477Z,21
2022-08-25T03:57:23.958Z,20.94
2022-08-25T04:02:33.169Z,20.94
2022-08-25T04:07:42.901Z,20.62
2022-08-25T04:12:51.314Z,20.81
2022-08-25T04:17:59.794Z,20.62
2022-08-25T04:23:09.554Z,20.56
2022-08-25T04:28:17.396Z,20.38
2022-08-25T04:33:26.514Z,20.62
2022-08-25T04:38:36.277Z,20.75
2022-08-25T04:43:45.397Z,20.38
2022-08-25T04:48:54.535Z,20.5
2022-08-25T04:54:03.016Z,20.44
2022-08-25T04:59:14.063Z,20.75
2022-08-25T05:04:28.941Z,20.62
2022-08-25T05:09:32.876Z,21.06
2022-08-25T05:14:40.130Z,21
2022-08-25T05:19:49.236Z,20.75
2022-08-25T05:24:58.995Z,21
2022-08-25T05:30:08.755Z,21.38
2022-08-25T05:35:16.596Z,21
2022-08-25T05:40:26.467Z,21.12
2022-08-25T05:45:35.540Z,21.12
2022-08-25T05:50:44.579Z,21.44
2022-08-25T05:55:54.356Z,21.62
2022-08-25T06:01:03.603Z,21.94
2022-08-25T06:06:13.250Z,22.19
2022-08-25T06:11:22.361Z,22.19
2022-08-25T06:16:32.239Z,22.12
2022-08-25T06:21:41.242Z,22.19
2022-08-25T06:26:50.356Z,22.12
2022-08-25T06:31:59.067Z,22.44
2022-08-25T06:37:08.599Z,22.62
2022-08-25T06:42:18.371Z,22.56
2022-08-25T06:47:27.515Z,23
2022-08-25T06:52:37.891Z,22.5
2022-08-25T06:57:47.025Z,22.44
2022-08-25T07:02:56.101Z,22.75
2022-08-25T07:08:04.959Z,23.31
2022-08-25T07:13:13.715Z,23.44
2022-08-25T07:18:22.195Z,23.38
2022-08-25T07:23:30.675Z,23.31
2022-08-25T07:28:40.444Z,23.56
2022-08-25T07:33:48.917Z,23.38
2022-08-25T07:38:58.052Z,23.62
2022-08-25T07:44:07.156Z,23.69
2022-08-25T07:49:17.088Z,23.88
2022-08-25T07:54:31.317Z,24.25
2022-08-25T07:59:40.208Z,24.75
2022-08-25T08:04:42.997Z,24.81
2022-08-25T08:10:28.133Z,25.31
2022-08-25T08:15:00.595Z,25.56
2022-08-25T08:20:08.441Z,25.75
2022-08-25T08:25:21.631Z,25.81
2022-08-25T08:30:26.578Z,26
2022-08-25T08:35:34.522Z,26.06
2022-08-25T08:40:42.996Z,26.25
2022-08-25T08:45:52.132Z,26.5
2022-08-25T08:51:00.597Z,26.31
2022-08-25T08:56:12.394Z,26
2022-08-25T09:01:20.126Z,26.19
2022-08-25T09:06:31.175Z,26.56
2022-08-25T09:11:39.649Z,26.5
2022-08-25T09:16:48.885Z,26.75
2022-08-25T09:21:57.891Z,26.88
2022-08-25T09:27:06.342Z,26.94
2022-08-25T09:32:16.114Z,27
2022-08-25T09:37:25.259Z,27.19
2022-08-25T09:42:34.996Z,27.31
2022-08-25T09:47:45.395Z,27.12
2022-08-25T09:52:54.513Z,27.31
2022-08-25T09:58:09.720Z,27.44
2022-08-25T10:03:12.751Z,27.5
2022-08-25T10:08:24.953Z,27.94
2022-08-25T10:13:32.916Z,27.62
2022-08-25T10:18:42.034Z,27.44
2022-08-25T10:23:55.302Z,28
2022-08-25T10:29:11.284Z,27.88
2022-08-25T10:34:26.128Z,28.19
2022-08-25T10:39:41.040Z,28.25
2022-08-25T10:44:55.895Z,28.31
2022-08-25T10:50:11.453Z,28.56
2022-08-25T10:55:26.939Z,28.44
2022-08-25T10:59:59.476Z,28
2022-08-25T11:06:06.454Z,28.12
2022-08-25T11:12:16.756Z,28.38
2022-08-25T11:12:27.030Z,28.38
2022-08-25T11:17:34.831Z,28.38
2022-08-25T11:24:48.056Z,28.62
2022-08-25T11:25:01.955Z,28.62
2022-08-25T11:30:30.629Z,28.62
2022-08-25T11:36:34.760Z,28.62
2022-08-25T11:44:25.721Z,28.88
2022-08-25T11:51:52.438Z,28.69
2022-08-25T11:57:00.914Z,28.94
2022-08-25T12:02:09.395Z,29
2022-08-25T12:07:19.158Z,29.25
2022-08-25T12:12:28.304Z,29.31
2022-08-25T12:17:36.755Z,29.31
2022-08-25T12:22:44.598Z,29.19
2022-08-25T12:27:54.355Z,29.12
2022-08-25T12:33:03.485Z,29.38
2022-08-25T12:38:12.593Z,29.5
2022-08-25T12:43:25.075Z,29.25
2022-08-25T12:48:58.355Z,29.25
2022-08-25T12:54:10.437Z,29.25
2022-08-25T12:59:14.678Z,29.25
2022-08-25T13:04:25.074Z,29.19
2022-08-25T13:09:34.834Z,29.56
2022-08-25T13:14:46.731Z,29.5
2022-08-25T13:19:54.358Z,29.69
2022-08-25T13:25:04.127Z,29.56
2022-08-25T13:30:18.358Z,29.69
2022-08-25T13:35:32.852Z,29.62
2022-08-25T13:40:37.888Z,29.62
2022-08-25T13:45:45.758Z,29.56
2022-08-25T13:50:57.394Z,29.75
2022-08-25T13:56:08.543Z,29.75
2022-08-25T14:01:46.578Z,29.62
2022-08-25T14:06:28.581Z,29.81
2022-08-25T14:11:38.370Z,29.88
2022-08-25T14:16:49.003Z,29.88
2022-08-25T14:21:59.152Z,29.69
2022-08-25T14:27:07.961Z,29.56
2022-08-25T14:32:18.032Z,29.62
2022-08-25T14:37:27.169Z,29.62
2022-08-25T14:42:34.995Z,29.81
2022-08-25T14:47:43.497Z,29.75
2022-08-25T14:52:59.819Z,29.81
2022-08-25T14:58:04.914Z,29.75
2022-08-25T15:03:13.410Z,29.75
2022-08-25T15:08:23.792Z,29.81
2022-08-25T15:13:38.775Z,29.81
2022-08-25T15:18:53.837Z,29.75
2022-08-25T15:24:08.637Z,29.81
2022-08-25T15:29:24.704Z,29.75
2022-08-25T15:34:42.140Z,29.88
2022-08-25T15:39:57.694Z,29.94
2022-08-25T15:44:30.102Z,29.75
2022-08-25T15:49:38.050Z,29.81
2022-08-25T15:54:47.797Z,29.75
2022-08-25T15:59:56.914Z,29.75
2022-08-25T16:05:06.036Z,29.81
2022-08-25T16:10:15.154Z,29.75
2022-08-25T16:15:29.080Z,29.75
2022-08-25T16:20:32.756Z,29.69
2022-08-25T16:25:42.525Z,29.69
2022-08-25T16:30:53.205Z,29.69
2022-08-25T16:36:00.754Z,29.69
2022-08-25T16:41:16.214Z,29.56
2022-08-25T16:46:24.216Z,29.44
2022-08-25T16:51:33.873Z,29.5
2022-08-25T16:56:42.378Z,29.44
2022-08-25T17:01:53.479Z,29.44
2022-08-25T17:07:03.155Z,29.38
2022-08-25T17:12:12.916Z,29.31
2022-08-25T17:17:22.687Z,29.38
2022-08-25T17:22:31.155Z,29.31
2022-08-25T17:27:40.274Z,29.19
2022-08-25T17:32:51.165Z,29.31
2022-08-25T17:37:59.155Z,29.19
2022-08-25T17:43:09.805Z,29.06
2022-08-25T17:48:18.675Z,29
2022-08-25T17:53:29.713Z,28.88
2022-08-25T17:58:37.555Z,28.88
2022-08-25T18:03:47.333Z,28.69
2022-08-25T18:09:00.244Z,28.69
2022-08-25T18:14:05.552Z,28.56
2022-08-25T18:19:15.315Z,28.56
2022-08-25T18:24:27.643Z,28.38
2022-08-25T18:29:36.754Z,28.25
2022-08-25T18:34:45.889Z,28.31
2022-08-25T18:39:54.407Z,28.12
2022-08-25T18:45:05.410Z,28.06
2022-08-25T18:50:13.878Z,28.19
2022-08-25T18:55:22.353Z,28.06
2022-08-25T19:00:32.129Z,27.75
2022-08-25T19:05:41.873Z,27.62
2022-08-25T19:10:51.007Z,27.56
2022-08-25T19:16:00.804Z,27.44
2022-08-25T19:21:09.884Z,27.44
2022-08-25T19:26:23.021Z,27.44
2022-08-25T19:31:40.775Z,27.25
2022-08-25T19:36:53.967Z,27.06
2022-08-25T19:42:35.492Z,27.25
2022-08-25T19:47:25.709Z,27.12
2022-08-25T19:52:41.362Z,26.94
2022-08-25T19:58:00.616Z,26.94
2022-08-25T20:02:22.299Z,26.94
2022-08-25T20:07:31.330Z,26.75
2022-08-25T20:12:40.439Z,26.94
2022-08-25T20:17:49.558Z,26.69
2022-08-25T20:22:59.322Z,26.75
2022-08-25T20:28:12.836Z,26.56
2022-08-25T20:33:23.179Z,26.62
2022-08-25T20:38:26.676Z,26.38
2022-08-25T20:43:36.459Z,26.31
2022-08-25T20:48:44.290Z,26.25
2022-08-25T20:53:54.035Z,26.06
2022-08-25T20:59:02.514Z,25.88
2022-08-25T21:04:14.617Z,25.88
2022-08-25T21:09:22.034Z,25.81
2022-08-25T21:14:31.152Z,25.62
2022-08-25T21:19:40.063Z,25.56
2022-08-25T21:24:49.409Z,25.69
2022-08-25T21:29:59.154Z,25.62
2022-08-25T21:35:08.276Z,25.5
2022-08-25T21:40:16.833Z,25.5
2022-08-25T21:45:26.504Z,25.44
2022-08-25T21:50:36.915Z,25.38
2022-08-25T21:55:46.676Z,25.25
2022-08-25T22:00:55.898Z,25.31
2022-08-25T22:06:04.919Z,25.12
2022-08-25T22:11:14.690Z,25.06
2022-08-25T22:16:23.257Z,25.06
2022-08-25T22:21:31.636Z,25.06
2022-08-25T22:26:40.117Z,25.12
2022-08-25T22:31:50.516Z,25.06
2022-08-25T22:37:00.961Z,25
2022-08-25T22:42:10.042Z,24.94
2022-08-25T22:47:18.515Z,24.94
2022-08-25T22:52:33.962Z,24.69
2022-08-25T22:57:36.761Z,24.5
2022-08-25T23:02:45.979Z,24.25
2022-08-25T23:07:55.010Z,24.25
2022-08-25T23:13:09.336Z,24.31
2022-08-25T23:18:25.498Z,24.31
2022-08-25T23:23:41.049Z,24.19
2022-08-25T23:28:57.263Z,24.19
2022-08-25T23:34:13.338Z,24.12
2022-08-25T23:39:28.874Z,24.12
2022-08-25T23:43:56.927Z,23.94
2022-08-25T23:49:06.041Z,24.06
2022-08-25T23:54:16.247Z,24
2022-08-25T23:59:25.763Z,24.06
